VABB Airport Information

Runway Information
Runway 09 Length 11302 ft width 148 ft
Elevation 15 ft Threshold 465 ft Heading 89
Runway 27 Length 11302 ft Width 148 ft
Elevation 22 ft Threshold 1581 ft Heading 269
Runway 14 Length 9596 ft width 150 ft
Elevation 37 ft Threshold 1238 ft Heading 134
Runway 32 Length 9596 ft Width 150 ft
Elevation 26 ft Threshold 853 ft Heading 314
Airport Frequencies
Type ACC Name MUMBAI Frequency 120.5 MHZ
Type APP Name MUMBAI APP Frequency 127.9 MHZ
Type ATIS Name MUMBAI ATI Frequency 126.4 MHZ
Type CLD Name MUMBAI CLR Frequency 121.85 MHZ
Type GND Name MUMBAI GND Frequency 121.9 MHZ
Type RDO Name MUMBAI RDO Frequency 1008.4 MHZ
Type RDR Name RDR Frequency 119.3 MHZ
Type TWR Name MUMBAI TWR Frequency 118.1 MHZ
Airport Navaids
Type VOR-DME Name Mumbai Frequency 116600 KHZ
Airport Weather Information & NOTAM
ADDS - METARS form results

(2209 UTC 22 July 2018)
 
METAR text: VABB 222200Z 24014KT 2500 -DZ FEW012 SCT018 BKN090 27/25 Q1002 TEMPO 1500 SHRA
Conditions at: VABB (BOMBAY/SANTACRUZ, IN) observed 2200 UTC 22 July 2018
Temperature: 27.0°C (81°F)
Dewpoint: 25.0°C (77°F) [RH = 89%]
Pressure (altimeter): 29.59 inches Hg (1002.0 mb)
Winds: from the WSW (240 degrees) at 16 MPH (14 knots; 7.3 m/s)
Visibility: 1.55 miles (2.49 km)
Ceiling: 9000 feet AGL
Clouds: few clouds at 1200 feet AGL
scattered clouds at 1800 feet AGL
broken clouds at 9000 feet AGL
Weather: -DZ  (light drizzle)

METAR text: VABB 222130Z 24011KT 2500 -DZ FEW012 SCT018 BKN090 28/25 Q1003 TEMPO 1500 SHRA
Conditions at: VABB (BOMBAY/SANTACRUZ, IN) observed 2130 UTC 22 July 2018
Temperature: 28.0°C (82°F)
Dewpoint: 25.0°C (77°F) [RH = 84%]
Pressure (altimeter): 29.62 inches Hg (1003.0 mb)
Winds: from the WSW (240 degrees) at 13 MPH (11 knots; 5.7 m/s)
Visibility: 1.55 miles (2.49 km)
Ceiling: 9000 feet AGL
Clouds: few clouds at 1200 feet AGL
scattered clouds at 1800 feet AGL
broken clouds at 9000 feet AGL
Weather: -DZ  (light drizzle)